Ovation Of The Seas — C6BX9 — position and weather

sailwx.info

Track history (hours):
 
Tides and Currents Weather Stations Pressure Air Temp Water Temp Dewpoint Dewpoint Depression Visibility Wind Speed Wind Dir Waves Ship Positions

Ovation Of The Seas

Last reported at 2020-Mar-31 05:00 UTC. Time now 2020-Mar-31 06:36 UTC.
Position S 34°06' E 151°38'.

Length 348 m; draft 8.9 m.

Type: Passenger vessel. MMSI: 311000397.

Date/timePositionNaut miles runAvg speedWind from/ knotsBaromVisibWave heightAir tempDewpointWater temp
2020-Mar-31 05:00S 34°06' E 151°38'4 7.3
2020-Mar-31 04:30S 34°04' E 151°34'1 1.1
2020-Mar-31 03:30S 34°04' E 151°33'24 1.6
2020-Mar-30 12:01S 34°28' E 151°35'2 1.5
2020-Mar-30 10:30S 34°26' E 151°35'3 1.5
2020-Mar-30 08:21S 34°23' E 151°36'1 1.6
2020-Mar-30 07:55S 34°22' E 151°36'5 1.6
2020-Mar-30 05:07S 34°18' E 151°38'1 1.9
2020-Mar-30 04:30S 34°17' E 151°39'5 1.7
2020-Mar-30 01:40S 34°12' E 151°40'0 1.4
2020-Mar-30 01:31S 34°12' E 151°40'9 3.0
2020-Mar-29 22:30S 34°20' E 151°35'14 6.3
2020-Mar-29 20:17S 34°32' E 151°26'1 1.8
2020-Mar-29 19:30S 34°30' E 151°26'1 1.7
2020-Mar-29 19:00S 34°30' E 151°26'10 2.2
2020-Mar-29 14:30S 34°20' E 151°29'3 3.1
2020-Mar-29 13:30S 34°17' E 151°31'2 3.1
2020-Mar-29 13:00S 34°16' E 151°32'2 3.2
2020-Mar-29 12:30S 34°15' E 151°33'3 2.9
2020-Mar-29 11:24S 34°12' E 151°36'5 2.1
2020-Mar-29 09:00S 34°10' E 151°41'13 0.9
2020-Mar-28 19:20S 34°22' E 151°37'4 0.1
2020-Mar-27 16:40S 34°26' E 151°35'0 0.6
2020-Mar-27 16:07S 34°26' E 151°35'22 0.6
2020-Mar-26 03:31S 34°04' E 151°38'6 0.8
2020-Mar-25 20:30S 34°07' E 151°44'9 1.8
2020-Mar-25 15:30S 34°06' E 151°55'16 7.7
2020-Mar-25 13:22S 34°19' E 151°43'13 4.1
2020-Mar-25 10:16S 34°18' E 151°28'  
2020-Mar-22 19:57S 34°05' E 151°51'4 9.9
2020-Mar-22 19:31S 34°09' E 151°49'9 7.2
2020-Mar-22 18:15S 34°18' E 151°51'7 7.0
2020-Mar-22 17:10S 34°13' E 151°45'8 7.1
2020-Mar-22 16:00S 34°09' E 151°36'9 2.2
2020-Mar-22 12:00S 34°00' E 151°39'6 1.1
2020-Mar-22 06:00S 33°54' E 151°39'1 1.4
2020-Mar-22 05:01S 33°55' E 151°39'1 0.4
2020-Mar-22 03:30S 33°55' E 151°40'1 1.2
2020-Mar-22 02:30S 33°55' E 151°38'3 0.9
2020-Mar-21 23:21S 33°53' E 151°36'8 9.5
2020-Mar-21 22:31S 33°52' E 151°27'11 3.5
2020-Mar-21 19:30S 33°51' E 151°14'0 0.0
2020-Mar-21 16:24S 33°51' E 151°14'0 0.0
2020-Mar-21 13:03S 33°51' E 151°14'0 0.0
2020-Mar-21 09:00S 33°51' E 151°14'  
Track history (hours):
 
Tides and Currents Weather Stations Pressure Air Temp Water Temp Dewpoint Dewpoint Depression Visibility Wind Speed Wind Dir Waves Ship Positions

Ovation Of The Seas

Last reported at 2020-Mar-31 05:00 UTC. Time now 2020-Mar-31 06:36 UTC.
Position S 34°06' E 151°38'.

Length 348 m; draft 8.9 m.

Type: Passenger vessel. MMSI: 311000397.

Date/timePositionNaut miles runAvg speedWind from/ knotsBaromVisibWave heightAir tempDewpointWater temp
2020-Mar-31 05:00S 34°06' E 151°38'4 7.3
2020-Mar-31 04:30S 34°04' E 151°34'1 1.1
2020-Mar-31 03:30S 34°04' E 151°33'24 1.6
2020-Mar-30 12:01S 34°28' E 151°35'2 1.5
2020-Mar-30 10:30S 34°26' E 151°35'3 1.5
2020-Mar-30 08:21S 34°23' E 151°36'1 1.6
2020-Mar-30 07:55S 34°22' E 151°36'5 1.6
2020-Mar-30 05:07S 34°18' E 151°38'1 1.9
2020-Mar-30 04:30S 34°17' E 151°39'5 1.7
2020-Mar-30 01:40S 34°12' E 151°40'0 1.4
2020-Mar-30 01:31S 34°12' E 151°40'9 3.0
2020-Mar-29 22:30S 34°20' E 151°35'14 6.3
2020-Mar-29 20:17S 34°32' E 151°26'1 1.8
2020-Mar-29 19:30S 34°30' E 151°26'1 1.7
2020-Mar-29 19:00S 34°30' E 151°26'10 2.2
2020-Mar-29 14:30S 34°20' E 151°29'3 3.1
2020-Mar-29 13:30S 34°17' E 151°31'2 3.1
2020-Mar-29 13:00S 34°16' E 151°32'2 3.2
2020-Mar-29 12:30S 34°15' E 151°33'3 2.9
2020-Mar-29 11:24S 34°12' E 151°36'5 2.1
2020-Mar-29 09:00S 34°10' E 151°41'13 0.9
2020-Mar-28 19:20S 34°22' E 151°37'4 0.1
2020-Mar-27 16:40S 34°26' E 151°35'0 0.6
2020-Mar-27 16:07S 34°26' E 151°35'22 0.6
2020-Mar-26 03:31S 34°04' E 151°38'6 0.8
2020-Mar-25 20:30S 34°07' E 151°44'9 1.8
2020-Mar-25 15:30S 34°06' E 151°55'16 7.7
2020-Mar-25 13:22S 34°19' E 151°43'13 4.1
2020-Mar-25 10:16S 34°18' E 151°28'  
2020-Mar-22 19:57S 34°05' E 151°51'4 9.9
2020-Mar-22 19:31S 34°09' E 151°49'9 7.2
2020-Mar-22 18:15S 34°18' E 151°51'7 7.0
2020-Mar-22 17:10S 34°13' E 151°45'8 7.1
2020-Mar-22 16:00S 34°09' E 151°36'9 2.2
2020-Mar-22 12:00S 34°00' E 151°39'6 1.1
2020-Mar-22 06:00S 33°54' E 151°39'1 1.4
2020-Mar-22 05:01S 33°55' E 151°39'1 0.4
2020-Mar-22 03:30S 33°55' E 151°40'1 1.2
2020-Mar-22 02:30S 33°55' E 151°38'3 0.9
2020-Mar-21 23:21S 33°53' E 151°36'8 9.5
2020-Mar-21 22:31S 33°52' E 151°27'11 3.5
2020-Mar-21 19:30S 33°51' E 151°14'0 0.0
2020-Mar-21 16:24S 33°51' E 151°14'0 0.0
2020-Mar-21 13:03S 33°51' E 151°14'0 0.0
2020-Mar-21 09:00S 33°51' E 151°14'  

Dump ship's entire track history